Time;durP1;ratioP1;P1;durP2;ratioP2;P2;SDS_P1;SDS_P2;PMS_P1;PMS_P2;Temp;Humidity;BMP_temperature;BMP_pressure;BME280_temperature;BME280_humidity;BME280_pressure;Samples;Min_cycle;Max_cycle;Signal;HPM_P1;HPM_P2
2022/02/22 00:00:15;;;;;;;0.23;0.23;;;;;;;;;;1877290;76;26257;-46
2022/02/22 00:02:43;;;;;;;0.30;0.30;;;;;;;;;;1875537;76;27376;-44
2022/02/22 00:05:11;;;;;;;0.17;0.17;;;;;;;;;;1878317;76;26368;-48
2022/02/22 00:07:39;;;;;;;0.30;0.30;;;;;;;;;;1880294;76;26766;-44
2022/02/22 00:10:07;;;;;;;0.20;0.20;;;;;;;;;;1879778;76;26342;-44
2022/02/22 00:12:34;;;;;;;0.20;0.20;;;;;;;;;;1878155;75;26795;-46
2022/02/22 00:15:01;;;;;;;0.25;0.25;;;;;;;;;;1873055;76;27352;-44
2022/02/22 00:17:33;;;;;;;0.20;0.20;;;;;;;;;;1873922;76;26269;-45
2022/02/22 00:19:57;;;;;;;0.10;0.10;;;;;;;;;;1873585;76;26305;-45
2022/02/22 00:22:25;;;;;;;0.20;0.20;;;;;;;;;;1869734;76;26270;-45
2022/02/22 00:24:52;;;;;;;0.10;0.10;;;;;;;;;;1888739;74;26280;-45
2022/02/22 00:27:19;;;;;;;0.10;0.10;;;;;;;;;;1889160;76;26294;-44
2022/02/22 00:29:47;;;;;;;0.13;0.13;;;;;;;;;;1889249;76;26257;-46
2022/02/22 00:32:15;;;;;;;0.95;0.20;;;;;;;;;;1884412;76;26284;-45
2022/02/22 00:34:43;;;;;;;0.17;0.17;;;;;;;;;;1886996;76;26370;-44
2022/02/22 00:37:10;;;;;;;0.20;0.20;;;;;;;;;;1889469;76;25869;-45
2022/02/22 00:39:38;;;;;;;0.10;0.10;;;;;;;;;;1890497;75;26880;-45
2022/02/22 00:42:05;;;;;;;0.20;0.20;;;;;;;;;;1899820;75;26225;-45
2022/02/22 00:44:33;;;;;;;0.30;0.30;;;;;;;;;;1869733;76;26235;-44
2022/02/22 00:47:00;;;;;;;0.40;0.20;;;;;;;;;;1889413;75;26268;-46
2022/02/22 00:49:27;;;;;;;0.20;0.20;;;;;;;;;;1875807;76;26272;-45
2022/02/22 00:51:55;;;;;;;0.28;0.20;;;;;;;;;;1876619;76;26350;-45
2022/02/22 00:54:22;;;;;;;0.17;0.17;;;;;;;;;;1882440;76;26810;-45
2022/02/22 00:56:49;;;;;;;0.23;0.23;;;;;;;;;;1889501;76;26733;-45
2022/02/22 00:59:16;;;;;;;0.20;0.20;;;;;;;;;;1884506;76;26806;-43
2022/02/22 01:01:44;;;;;;;0.10;0.10;;;;;;;;;;1886922;76;26719;-44
2022/02/22 01:04:11;;;;;;;0.13;0.13;;;;;;;;;;1889153;76;26262;-44
2022/02/22 01:06:38;;;;;;;0.10;0.10;;;;;;;;;;1870471;76;26276;-46
2022/02/22 01:09:07;;;;;;;0.10;0.10;;;;;;;;;;1883325;76;26263;-44
2022/02/22 01:11:35;;;;;;;0.20;0.20;;;;;;;;;;1902762;74;26203;-44
2022/02/22 01:14:03;;;;;;;0.17;0.17;;;;;;;;;;1892222;74;26272;-44
2022/02/22 01:16:31;;;;;;;0.15;0.10;;;;;;;;;;1889109;74;26343;-44
2022/02/22 01:18:58;;;;;;;0.15;0.15;;;;;;;;;;1889329;76;26688;-46
2022/02/22 01:21:26;;;;;;;2.95;0.20;;;;;;;;;;1884929;76;26761;-45
2022/02/22 01:23:53;;;;;;;0.10;0.10;;;;;;;;;;1874670;76;26209;-44
2022/02/22 01:26:21;;;;;;;0.03;0.03;;;;;;;;;;1878348;75;26269;-44
2022/02/22 01:28:48;;;;;;;0.10;0.10;;;;;;;;;;1874000;76;26304;-46
2022/02/22 01:31:15;;;;;;;0.10;0.10;;;;;;;;;;1864742;76;26260;-44
2022/02/22 01:33:42;;;;;;;0.30;0.30;;;;;;;;;;1879823;76;26327;-44
2022/02/22 01:36:10;;;;;;;0.10;0.10;;;;;;;;;;1876798;75;26650;-44
2022/02/22 01:38:37;;;;;;;0.10;0.10;;;;;;;;;;1859995;76;26276;-44
2022/02/22 01:41:04;;;;;;;0.10;0.10;;;;;;;;;;1871673;75;26296;-44
2022/02/22 01:43:31;;;;;;;0.20;0.20;;;;;;;;;;1877251;76;26347;-44
2022/02/22 01:45:59;;;;;;;0.20;0.20;;;;;;;;;;1879780;76;26283;-43
2022/02/22 01:48:26;;;;;;;0.20;0.20;;;;;;;;;;1870304;76;26277;-45
2022/02/22 01:50:54;;;;;;;1.70;0.23;;;;;;;;;;1876959;75;26279;-47
2022/02/22 01:53:21;;;;;;;0.17;0.13;;;;;;;;;;1881479;75;26288;-44
2022/02/22 01:55:48;;;;;;;0.30;0.30;;;;;;;;;;1881084;75;27586;-44
2022/02/22 01:58:15;;;;;;;0.25;0.25;;;;;;;;;;1880190;76;26950;-44
2022/02/22 02:00:45;;;;;;;0.20;0.20;;;;;;;;;;1874125;76;26268;-45
2022/02/22 02:03:13;;;;;;;0.33;0.20;;;;;;;;;;1879708;76;26341;-44
2022/02/22 02:05:40;;;;;;;0.13;0.13;;;;;;;;;;1879902;76;26281;-44
2022/02/22 02:08:08;;;;;;;0.10;0.10;;;;;;;;;;1880217;76;26295;-44
2022/02/22 02:10:35;;;;;;;0.30;0.30;;;;;;;;;;1870340;76;26791;-44
2022/02/22 02:13:03;;;;;;;0.28;0.20;;;;;;;;;;1864656;76;26749;-44
2022/02/22 02:15:30;;;;;;;0.10;0.10;;;;;;;;;;1876166;76;26249;-44
2022/02/22 02:17:58;;;;;;;0.10;0.10;;;;;;;;;;1879492;76;26737;-44
2022/02/22 02:20:25;;;;;;;0.10;0.10;;;;;;;;;;1880032;76;26408;-45
2022/02/22 02:22:56;;;;;;;0.20;0.20;;;;;;;;;;1886870;75;26303;-46
2022/02/22 02:25:21;;;;;;;0.20;0.20;;;;;;;;;;1895159;75;26657;-46
2022/02/22 02:27:49;;;;;;;0.20;0.20;;;;;;;;;;1875716;75;26241;-44
2022/02/22 02:30:17;;;;;;;0.20;0.20;;;;;;;;;;1895437;75;26261;-44
2022/02/22 02:32:44;;;;;;;0.55;0.20;;;;;;;;;;1894529;75;26906;-46
2022/02/22 02:35:11;;;;;;;0.10;0.10;;;;;;;;;;1894767;75;26732;-44
2022/02/22 02:37:39;;;;;;;0.15;0.13;;;;;;;;;;1878384;75;26743;-44
2022/02/22 02:40:08;;;;;;;0.20;0.20;;;;;;;;;;1875370;75;26280;-45
2022/02/22 02:42:37;;;;;;;0.10;0.10;;;;;;;;;;1891145;75;27533;-46
2022/02/22 02:45:05;;;;;;;0.85;0.20;;;;;;;;;;1894783;75;26609;-44
2022/02/22 02:47:32;;;;;;;1.55;0.28;;;;;;;;;;1890079;75;25633;-48
2022/02/22 02:49:59;;;;;;;0.30;0.30;;;;;;;;;;1888669;75;26280;-43
2022/02/22 02:52:26;;;;;;;0.20;0.20;;;;;;;;;;1884310;75;26281;-45
2022/02/22 02:54:58;;;;;;;0.47;0.30;;;;;;;;;;1895550;75;26244;-45
2022/02/22 02:57:23;;;;;;;0.20;0.20;;;;;;;;;;1894888;75;26300;-45
2022/02/22 02:59:50;;;;;;;0.20;0.20;;;;;;;;;;1884121;75;26335;-43
2022/02/22 03:02:17;;;;;;;3.83;0.30;;;;;;;;;;1893477;75;26312;-43
2022/02/22 03:04:45;;;;;;;0.20;0.20;;;;;;;;;;1885615;75;26324;-46
2022/02/22 03:07:12;;;;;;;0.28;0.28;;;;;;;;;;1889234;75;26767;-44
2022/02/22 03:09:39;;;;;;;0.30;0.30;;;;;;;;;;1887578;75;26326;-43
2022/02/22 03:12:07;;;;;;;0.37;0.25;;;;;;;;;;1895510;75;26205;-43
2022/02/22 03:14:34;;;;;;;0.17;0.17;;;;;;;;;;1891906;75;26314;-43
2022/02/22 03:17:01;;;;;;;0.40;0.40;;;;;;;;;;1889951;74;26267;-43
2022/02/22 03:19:29;;;;;;;2.55;0.40;;;;;;;;;;1895280;75;27054;-44
2022/02/22 03:21:56;;;;;;;0.30;0.30;;;;;;;;;;1894045;75;26260;-44
2022/02/22 03:24:23;;;;;;;0.30;0.30;;;;;;;;;;1890611;75;26382;-44
2022/02/22 03:26:50;;;;;;;0.30;0.30;;;;;;;;;;1895421;75;26236;-44
2022/02/22 03:29:18;;;;;;;1.17;0.30;;;;;;;;;;1895355;75;26373;-43
2022/02/22 03:31:45;;;;;;;0.30;0.30;;;;;;;;;;1890043;75;26252;-43
2022/02/22 03:34:12;;;;;;;0.30;0.30;;;;;;;;;;1901499;75;26810;-43
2022/02/22 03:36:40;;;;;;;0.33;0.33;;;;;;;;;;1880598;75;26360;-44
2022/02/22 03:39:08;;;;;;;0.40;0.40;;;;;;;;;;1886028;75;26233;-46
2022/02/22 03:41:35;;;;;;;0.40;0.40;;;;;;;;;;1889347;74;26256;-46
2022/02/22 03:44:03;;;;;;;0.30;0.30;;;;;;;;;;1893480;75;26371;-43
2022/02/22 03:46:30;;;;;;;0.30;0.30;;;;;;;;;;1895281;75;26237;-45
2022/02/22 03:48:57;;;;;;;0.45;0.45;;;;;;;;;;1895147;75;26268;-44
2022/02/22 03:51:24;;;;;;;0.25;0.20;;;;;;;;;;1895728;74;26284;-45
2022/02/22 03:53:52;;;;;;;0.85;0.40;;;;;;;;;;1892931;75;26307;-43
2022/02/22 03:56:19;;;;;;;0.53;0.50;;;;;;;;;;1895507;75;26299;-43
2022/02/22 03:58:46;;;;;;;0.40;0.40;;;;;;;;;;1892073;75;26287;-45
2022/02/22 04:01:14;;;;;;;0.40;0.40;;;;;;;;;;1889852;75;26729;-43
2022/02/22 04:03:41;;;;;;;0.40;0.40;;;;;;;;;;1866448;75;26295;-43
2022/02/22 04:06:08;;;;;;;0.40;0.40;;;;;;;;;;1883732;75;26261;-43
2022/02/22 04:08:36;;;;;;;1.00;0.40;;;;;;;;;;1894830;75;26298;-44
2022/02/22 04:11:04;;;;;;;0.40;0.40;;;;;;;;;;1877417;75;26855;-44
2022/02/22 04:13:31;;;;;;;0.50;0.50;;;;;;;;;;1895413;74;26354;-44
2022/02/22 04:15:58;;;;;;;0.40;0.40;;;;;;;;;;1890384;75;26269;-43
2022/02/22 04:18:25;;;;;;;0.50;0.50;;;;;;;;;;1885899;75;26320;-44
2022/02/22 04:20:53;;;;;;;0.40;0.40;;;;;;;;;;1890515;75;26280;-43
2022/02/22 04:23:20;;;;;;;0.42;0.42;;;;;;;;;;1885159;75;26289;-45
2022/02/22 04:25:48;;;;;;;0.42;0.42;;;;;;;;;;1876597;76;26201;-45
2022/02/22 04:28:15;;;;;;;0.40;0.40;;;;;;;;;;1880005;76;26297;-43
2022/02/22 04:30:42;;;;;;;0.40;0.40;;;;;;;;;;1879283;76;26269;-44
2022/02/22 04:33:10;;;;;;;0.50;0.50;;;;;;;;;;1878618;76;26260;-43
2022/02/22 04:35:37;;;;;;;0.30;0.30;;;;;;;;;;1879369;76;26932;-44
2022/02/22 04:38:04;;;;;;;0.50;0.50;;;;;;;;;;1873598;76;26269;-45
2022/02/22 04:40:32;;;;;;;0.40;0.40;;;;;;;;;;1866442;76;26340;-45
2022/02/22 04:42:59;;;;;;;1.02;0.95;;;;;;;;;;1879616;76;26772;-45
2022/02/22 04:45:26;;;;;;;0.45;0.45;;;;;;;;;;1879988;76;26388;-43
2022/02/22 04:47:56;;;;;;;1.05;0.40;;;;;;;;;;1879554;76;26335;-45
2022/02/22 04:50:24;;;;;;;0.30;0.30;;;;;;;;;;1877558;75;26347;-43
2022/02/22 04:52:51;;;;;;;0.30;0.30;;;;;;;;;;1879713;76;26359;-45
2022/02/22 04:55:19;;;;;;;1.57;0.50;;;;;;;;;;1876449;75;26292;-44
2022/02/22 04:57:46;;;;;;;0.40;0.40;;;;;;;;;;1871277;76;26752;-43
2022/02/22 05:00:15;;;;;;;0.50;0.50;;;;;;;;;;1879495;76;26346;-44
2022/02/22 05:02:43;;;;;;;0.40;0.40;;;;;;;;;;1879888;76;26268;-44
2022/02/22 05:05:10;;;;;;;0.42;0.42;;;;;;;;;;1871720;75;26375;-44
2022/02/22 05:07:37;;;;;;;0.40;0.40;;;;;;;;;;1875458;76;26261;-43
2022/02/22 05:10:05;;;;;;;0.68;0.50;;;;;;;;;;1888147;75;26277;-43
2022/02/22 05:12:33;;;;;;;0.37;0.37;;;;;;;;;;1876963;76;26814;-43
2022/02/22 05:15:00;;;;;;;0.55;0.42;;;;;;;;;;1879455;76;26326;-43
2022/02/22 05:17:27;;;;;;;0.47;0.47;;;;;;;;;;1878017;76;26307;-43
2022/02/22 05:19:54;;;;;;;1.17;0.40;;;;;;;;;;1879616;76;26276;-45
2022/02/22 05:22:22;;;;;;;0.50;0.50;;;;;;;;;;1877329;76;26831;-45
2022/02/22 05:24:49;;;;;;;0.42;0.42;;;;;;;;;;1879362;76;26768;-43
2022/02/22 05:27:16;;;;;;;0.50;0.50;;;;;;;;;;1877479;76;26798;-44
2022/02/22 05:29:44;;;;;;;0.40;0.40;;;;;;;;;;1877803;75;26277;-43
2022/02/22 05:32:11;;;;;;;0.50;0.50;;;;;;;;;;1879478;76;26248;-44
2022/02/22 05:34:38;;;;;;;0.35;0.35;;;;;;;;;;1877011;76;26245;-44
2022/02/22 05:37:05;;;;;;;0.40;0.40;;;;;;;;;;1879101;76;26276;-45
2022/02/22 05:39:33;;;;;;;0.47;0.47;;;;;;;;;;1874196;76;26304;-44
2022/02/22 05:42:00;;;;;;;0.40;0.40;;;;;;;;;;1877643;76;26346;-44
2022/02/22 05:44:27;;;;;;;0.50;0.50;;;;;;;;;;1878868;75;26256;-45
2022/02/22 05:46:54;;;;;;;0.50;0.50;;;;;;;;;;1876476;76;26237;-43
2022/02/22 05:49:25;;;;;;;0.50;0.50;;;;;;;;;;1874764;76;26284;-43
2022/02/22 05:51:51;;;;;;;0.55;0.55;;;;;;;;;;1878349;75;26340;-45
2022/02/22 05:54:18;;;;;;;0.60;0.60;;;;;;;;;;1878813;76;26241;-44
2022/02/22 05:56:45;;;;;;;1.42;0.65;;;;;;;;;;1871652;76;26304;-43
2022/02/22 05:59:14;;;;;;;0.60;0.60;;;;;;;;;;1874415;76;27509;-44
2022/02/22 06:01:47;;;;;;;1.42;0.50;;;;;;;;;;1875666;76;26366;-46
2022/02/22 06:04:11;;;;;;;0.60;0.60;;;;;;;;;;1877370;75;26718;-44
2022/02/22 06:06:39;;;;;;;0.50;0.50;;;;;;;;;;1875119;76;26296;-43
2022/02/22 06:09:07;;;;;;;0.50;0.50;;;;;;;;;;1874416;76;26273;-43
2022/02/22 06:11:34;;;;;;;0.65;0.65;;;;;;;;;;1879340;76;26280;-44
2022/02/22 06:14:02;;;;;;;0.42;0.42;;;;;;;;;;1879591;76;26992;-43
2022/02/22 06:16:29;;;;;;;2.30;0.55;;;;;;;;;;1878121;76;26323;-44
2022/02/22 06:18:57;;;;;;;0.50;0.50;;;;;;;;;;1879363;76;26268;-43
2022/02/22 06:21:24;;;;;;;1.95;0.60;;;;;;;;;;1878801;76;26568;-44
2022/02/22 06:23:51;;;;;;;3.10;0.60;;;;;;;;;;1879674;76;26309;-46
2022/02/22 06:26:18;;;;;;;0.72;0.70;;;;;;;;;;1879941;76;26350;-46
2022/02/22 06:28:46;;;;;;;0.57;0.57;;;;;;;;;;1875340;76;26364;-43
2022/02/22 06:31:14;;;;;;;0.50;0.50;;;;;;;;;;1879298;76;26265;-45
2022/02/22 06:33:41;;;;;;;0.40;0.40;;;;;;;;;;1878643;76;26264;-43
2022/02/22 06:36:08;;;;;;;0.50;0.50;;;;;;;;;;1879746;76;26323;-44
2022/02/22 06:38:36;;;;;;;0.70;0.70;;;;;;;;;;1878946;75;26320;-44
2022/02/22 06:41:03;;;;;;;1.12;0.60;;;;;;;;;;1888856;75;26507;-44
2022/02/22 06:43:30;;;;;;;0.60;0.60;;;;;;;;;;1879762;76;26799;-43
2022/02/22 06:45:58;;;;;;;1.72;0.60;;;;;;;;;;1867810;75;26764;-42
2022/02/22 06:48:25;;;;;;;2.05;0.60;;;;;;;;;;1867317;75;26819;-43
2022/02/22 06:50:52;;;;;;;1.40;0.50;;;;;;;;;;1878386;76;26760;-43
2022/02/22 06:53:19;;;;;;;0.45;0.45;;;;;;;;;;1875370;76;26207;-42
2022/02/22 06:55:47;;;;;;;1.65;0.65;;;;;;;;;;1877988;75;26331;-42
2022/02/22 06:58:14;;;;;;;0.60;0.60;;;;;;;;;;1874331;76;26319;-44
2022/02/22 07:00:43;;;;;;;1.85;0.50;;;;;;;;;;1879836;76;26703;-43
2022/02/22 07:03:10;;;;;;;3.83;1.47;;;;;;;;;;1879675;76;26692;-42
2022/02/22 07:05:38;;;;;;;0.60;0.60;;;;;;;;;;1876187;76;26402;-42
2022/02/22 07:08:05;;;;;;;1.20;0.60;;;;;;;;;;1880167;76;26260;-42
2022/02/22 07:10:32;;;;;;;3.70;0.70;;;;;;;;;;1868836;76;26322;-42
2022/02/22 07:13:00;;;;;;;0.60;0.60;;;;;;;;;;1879694;76;26272;-41
2022/02/22 07:15:27;;;;;;;6.85;0.78;;;;;;;;;;1878291;76;26732;-45
2022/02/22 07:17:56;;;;;;;0.93;0.50;;;;;;;;;;1874693;76;26272;-44
2022/02/22 07:20:24;;;;;;;0.53;0.53;;;;;;;;;;1879895;76;26740;-43
2022/02/22 07:22:59;;;;;;;0.47;0.45;;;;;;;;;;1877604;76;26249;-44
2022/02/22 07:25:28;;;;;;;0.70;0.70;;;;;;;;;;1880084;76;26344;-44
2022/02/22 07:27:57;;;;;;;2.47;0.70;;;;;;;;;;1879318;76;26279;-43
2022/02/22 07:30:25;;;;;;;0.60;0.60;;;;;;;;;;1878914;76;26779;-43
2022/02/22 07:32:53;;;;;;;0.50;0.50;;;;;;;;;;1869316;76;26269;-43
2022/02/22 07:35:21;;;;;;;0.60;0.60;;;;;;;;;;1876470;76;26261;-42
2022/02/22 07:37:48;;;;;;;0.50;0.50;;;;;;;;;;1875547;76;26882;-41
2022/02/22 07:40:17;;;;;;;0.53;0.50;;;;;;;;;;1872051;75;26350;-46
2022/02/22 07:42:44;;;;;;;1.32;0.60;;;;;;;;;;1879329;76;26764;-43
2022/02/22 07:45:12;;;;;;;0.70;0.70;;;;;;;;;;1879018;75;26281;-45
2022/02/22 07:47:40;;;;;;;0.60;0.50;;;;;;;;;;1876793;76;26805;-45
2022/02/22 07:50:08;;;;;;;0.80;0.80;;;;;;;;;;1878124;76;26281;-41
2022/02/22 07:52:36;;;;;;;0.40;0.40;;;;;;;;;;1874151;75;26350;-41
2022/02/22 07:55:05;;;;;;;0.53;0.53;;;;;;;;;;1878834;75;26776;-43
2022/02/22 07:57:32;;;;;;;0.47;0.47;;;;;;;;;;1878455;76;26241;-43
2022/02/22 08:00:00;;;;;;;0.50;0.50;;;;;;;;;;1879172;76;26190;-43
2022/02/22 08:02:27;;;;;;;0.60;0.60;;;;;;;;;;1879118;76;26269;-46
2022/02/22 08:04:54;;;;;;;0.60;0.60;;;;;;;;;;1876379;75;26261;-47
2022/02/22 08:07:22;;;;;;;0.82;0.53;;;;;;;;;;1878537;76;26685;-47
2022/02/22 08:09:49;;;;;;;0.60;0.60;;;;;;;;;;1878925;76;26261;-46
2022/02/22 08:12:16;;;;;;;0.60;0.60;;;;;;;;;;1877138;76;26276;-46
2022/02/22 08:14:44;;;;;;;0.53;0.53;;;;;;;;;;1877028;75;26373;-47
2022/02/22 08:17:11;;;;;;;0.60;0.60;;;;;;;;;;1868555;75;26307;-45
2022/02/22 08:19:38;;;;;;;0.50;0.50;;;;;;;;;;1880147;76;26343;-46
2022/02/22 08:22:05;;;;;;;0.57;0.57;;;;;;;;;;1873006;75;26319;-46
2022/02/22 08:24:33;;;;;;;0.60;0.60;;;;;;;;;;1880013;76;26269;-44
2022/02/22 08:27:03;;;;;;;0.60;0.60;;;;;;;;;;1885096;76;26338;-45
2022/02/22 08:29:30;;;;;;;0.50;0.50;;;;;;;;;;1886087;76;27576;-45
2022/02/22 08:31:58;;;;;;;0.50;0.50;;;;;;;;;;1875440;76;26780;-43
2022/02/22 08:34:25;;;;;;;0.50;0.50;;;;;;;;;;1882084;76;26316;-44
2022/02/22 08:36:53;;;;;;;0.85;0.70;;;;;;;;;;1888885;76;26866;-43
2022/02/22 08:39:23;;;;;;;0.93;0.55;;;;;;;;;;1887796;76;26345;-43
2022/02/22 08:41:50;;;;;;;7.53;0.62;;;;;;;;;;1876382;76;26277;-45
2022/02/22 08:44:17;;;;;;;0.90;0.57;;;;;;;;;;1875328;76;26221;-44
2022/02/22 08:46:45;;;;;;;0.53;0.50;;;;;;;;;;1887042;76;26272;-44
2022/02/22 08:49:12;;;;;;;2.05;0.68;;;;;;;;;;1883041;76;26284;-43
2022/02/22 08:51:39;;;;;;;0.55;0.55;;;;;;;;;;1888975;76;26753;-42
2022/02/22 08:54:09;;;;;;;0.60;0.60;;;;;;;;;;1888851;76;26273;-43
2022/02/22 08:56:37;;;;;;;0.60;0.60;;;;;;;;;;1878409;76;26417;-43
2022/02/22 08:59:05;;;;;;;0.60;0.60;;;;;;;;;;1887886;76;26331;-45
2022/02/22 09:01:32;;;;;;;0.70;0.70;;;;;;;;;;1885992;76;26943;-44
2022/02/22 09:03:59;;;;;;;0.60;0.60;;;;;;;;;;1887185;76;26756;-43
2022/02/22 09:06:26;;;;;;;0.70;0.70;;;;;;;;;;1887898;76;26261;-43
2022/02/22 09:08:54;;;;;;;0.57;0.55;;;;;;;;;;1888577;74;26748;-45
2022/02/22 09:11:21;;;;;;;0.62;0.60;;;;;;;;;;1889103;76;26735;-44
2022/02/22 09:13:48;;;;;;;0.60;0.60;;;;;;;;;;1888584;74;26350;-43
2022/02/22 09:16:15;;;;;;;0.60;0.60;;;;;;;;;;1886576;75;26253;-43
2022/02/22 09:18:43;;;;;;;0.60;0.60;;;;;;;;;;1866240;76;26264;-41
2022/02/22 09:21:10;;;;;;;0.50;0.50;;;;;;;;;;1880995;75;26269;-42
2022/02/22 09:23:37;;;;;;;0.65;0.65;;;;;;;;;;1888979;76;26257;-43
2022/02/22 09:26:05;;;;;;;0.60;0.60;;;;;;;;;;1884808;75;26314;-44
2022/02/22 09:28:32;;;;;;;0.50;0.50;;;;;;;;;;1879862;76;26332;-41
2022/02/22 09:30:59;;;;;;;0.50;0.50;;;;;;;;;;1877967;76;26198;-45
2022/02/22 09:33:26;;;;;;;0.50;0.50;;;;;;;;;;1874353;76;26244;-45
2022/02/22 09:35:54;;;;;;;0.60;0.60;;;;;;;;;;1880163;76;26276;-43
2022/02/22 09:38:21;;;;;;;0.70;0.70;;;;;;;;;;1867624;76;26286;-45
2022/02/22 09:40:48;;;;;;;2.47;0.62;;;;;;;;;;1866818;76;26262;-45
2022/02/22 09:43:17;;;;;;;0.57;0.57;;;;;;;;;;1879755;76;26264;-47
2022/02/22 09:45:44;;;;;;;0.60;0.60;;;;;;;;;;1871575;76;26608;-44
2022/02/22 09:48:12;;;;;;;0.50;0.50;;;;;;;;;;1879094;76;26335;-48
2022/02/22 09:50:39;;;;;;;0.50;0.50;;;;;;;;;;1879564;76;26769;-45
2022/02/22 09:53:08;;;;;;;0.60;0.60;;;;;;;;;;1881526;75;26204;-43
2022/02/22 09:55:35;;;;;;;6.85;0.75;;;;;;;;;;1878143;76;26286;-46
2022/02/22 09:58:03;;;;;;;0.62;0.62;;;;;;;;;;1878649;76;26472;-41
2022/02/22 10:00:32;;;;;;;0.50;0.50;;;;;;;;;;1879957;76;26245;-43
2022/02/22 10:02:59;;;;;;;0.47;0.47;;;;;;;;;;1879951;75;27323;-42
2022/02/22 10:05:28;;;;;;;0.47;0.47;;;;;;;;;;1872228;76;26260;-43
2022/02/22 10:07:57;;;;;;;0.50;0.50;;;;;;;;;;1879928;76;26240;-44
2022/02/22 10:10:34;;;;;;;0.60;0.60;;;;;;;;;;1858099;76;26280;-44
2022/02/22 10:13:01;;;;;;;0.57;0.57;;;;;;;;;;1867900;76;26229;-44
2022/02/22 10:15:29;;;;;;;0.55;0.55;;;;;;;;;;1861409;76;26206;-46
2022/02/22 10:17:56;;;;;;;1.62;0.68;;;;;;;;;;1877929;76;26815;-45
2022/02/22 10:20:24;;;;;;;0.50;0.50;;;;;;;;;;1874712;76;26253;-45
2022/02/22 10:22:52;;;;;;;0.60;0.60;;;;;;;;;;1879146;75;26323;-46
2022/02/22 10:25:21;;;;;;;0.50;0.50;;;;;;;;;;1869485;76;26288;-42
2022/02/22 10:27:49;;;;;;;0.60;0.60;;;;;;;;;;1869724;76;26374;-44
2022/02/22 10:30:38;;;;;;;0.60;0.60;;;;;;;;;;1857052;76;26338;-45
2022/02/22 10:33:00;;;;;;;0.50;0.50;;;;;;;;;;1832794;76;26206;-42
2022/02/22 10:35:28;;;;;;;0.60;0.60;;;;;;;;;;1852052;76;26382;-43
2022/02/22 10:37:56;;;;;;;0.53;0.53;;;;;;;;;;1846692;76;26357;-43
2022/02/22 10:40:30;;;;;;;0.60;0.60;;;;;;;;;;1844748;76;26263;-42
2022/02/22 10:42:58;;;;;;;0.60;0.60;;;;;;;;;;1855609;76;26724;-43
2022/02/22 10:45:25;;;;;;;0.50;0.50;;;;;;;;;;1868986;76;26202;-43
2022/02/22 10:47:55;;;;;;;0.60;0.60;;;;;;;;;;1851767;76;26722;-45
2022/02/22 10:50:26;;;;;;;1.55;0.42;;;;;;;;;;1856502;76;26569;-44
2022/02/22 10:52:53;;;;;;;0.60;0.60;;;;;;;;;;1853081;76;26220;-45
2022/02/22 10:55:21;;;;;;;0.50;0.50;;;;;;;;;;1850724;76;26866;-43
2022/02/22 10:57:49;;;;;;;0.50;0.50;;;;;;;;;;1854463;76;26260;-44
2022/02/22 11:00:17;;;;;;;0.50;0.50;;;;;;;;;;1852318;76;26319;-45
2022/02/22 11:02:45;;;;;;;0.50;0.50;;;;;;;;;;1861464;76;26276;-42
2022/02/22 11:05:14;;;;;;;0.60;0.60;;;;;;;;;;1849344;76;26327;-42
2022/02/22 11:07:43;;;;;;;0.50;0.50;;;;;;;;;;1865313;76;26535;-46
2022/02/22 11:10:11;;;;;;;0.62;0.62;;;;;;;;;;1847461;76;26316;-43
2022/02/22 11:12:40;;;;;;;0.50;0.50;;;;;;;;;;1848858;76;26654;-43
2022/02/22 11:15:08;;;;;;;0.50;0.50;;;;;;;;;;1850712;76;26217;-42
2022/02/22 11:17:46;;;;;;;0.60;0.60;;;;;;;;;;1851375;76;26229;-42
2022/02/22 11:20:32;;;;;;;0.65;0.65;;;;;;;;;;1852419;76;26289;-44
2022/02/22 11:23:01;;;;;;;0.55;0.55;;;;;;;;;;1839483;76;26280;-45
2022/02/22 11:25:30;;;;;;;0.50;0.50;;;;;;;;;;1838128;76;26291;-46
2022/02/22 11:28:04;;;;;;;0.60;0.60;;;;;;;;;;1874633;76;26266;-43
2022/02/22 11:30:32;;;;;;;0.60;0.60;;;;;;;;;;1879030;76;26376;-44
2022/02/22 11:33:10;;;;;;;0.60;0.60;;;;;;;;;;1869800;76;26353;-45
2022/02/22 11:35:47;;;;;;;0.50;0.50;;;;;;;;;;1877997;76;26273;-44
2022/02/22 11:38:15;;;;;;;0.60;0.60;;;;;;;;;;1857298;76;26268;-44
2022/02/22 11:40:43;;;;;;;0.82;0.60;;;;;;;;;;1871893;76;26292;-45
2022/02/22 11:43:15;;;;;;;1.47;0.60;;;;;;;;;;1872666;76;27426;-45
2022/02/22 11:45:44;;;;;;;1.15;0.60;;;;;;;;;;1877285;76;26351;-44
2022/02/22 11:48:22;;;;;;;1.67;0.65;;;;;;;;;;1864968;76;26264;-44
2022/02/22 11:50:51;;;;;;;1.55;0.70;;;;;;;;;;1876733;76;26250;-46
2022/02/22 11:53:23;;;;;;;1.65;0.75;;;;;;;;;;1876677;75;26363;-45
2022/02/22 11:55:50;;;;;;;2.02;0.80;;;;;;;;;;1865630;75;26779;-45
2022/02/22 11:58:22;;;;;;;2.40;0.70;;;;;;;;;;1878650;76;26299;-43
2022/02/22 12:00:51;;;;;;;0.88;0.50;;;;;;;;;;1879500;75;26362;-43
2022/02/22 12:03:21;;;;;;;2.52;0.72;;;;;;;;;;1875689;76;26308;-42
2022/02/22 12:05:52;;;;;;;1.37;0.70;;;;;;;;;;1862989;76;26694;-44
2022/02/22 12:08:21;;;;;;;0.78;0.50;;;;;;;;;;1879254;75;26269;-43
2022/02/22 12:10:55;;;;;;;0.60;0.60;;;;;;;;;;1860750;75;26266;-43
2022/02/22 12:13:23;;;;;;;1.90;0.72;;;;;;;;;;1876025;75;26903;-42
2022/02/22 12:15:55;;;;;;;5.25;0.80;;;;;;;;;;1868318;75;26264;-48
2022/02/22 12:18:21;;;;;;;0.60;0.60;;;;;;;;;;1877203;76;26273;-42
2022/02/22 12:20:49;;;;;;;2.15;0.60;;;;;;;;;;1874005;76;26336;-43
2022/02/22 12:23:18;;;;;;;0.57;0.57;;;;;;;;;;1872042;76;26239;-43
2022/02/22 12:25:45;;;;;;;0.95;0.70;;;;;;;;;;1877775;76;26277;-41
2022/02/22 12:28:13;;;;;;;0.70;0.60;;;;;;;;;;1879658;75;26304;-43
2022/02/22 12:30:41;;;;;;;1.00;0.60;;;;;;;;;;1879448;75;26276;-42
2022/02/22 12:33:09;;;;;;;0.50;0.50;;;;;;;;;;1889007;76;26563;-43
2022/02/22 12:35:41;;;;;;;0.60;0.60;;;;;;;;;;1886081;76;26276;-43
2022/02/22 12:38:15;;;;;;;0.60;0.60;;;;;;;;;;1884185;76;27345;-43
2022/02/22 12:40:43;;;;;;;0.70;0.70;;;;;;;;;;1886791;74;26398;-42
2022/02/22 12:43:12;;;;;;;0.80;0.78;;;;;;;;;;1888891;76;26272;-42
2022/02/22 12:45:46;;;;;;;0.62;0.62;;;;;;;;;;1876722;76;26207;-41
2022/02/22 12:48:14;;;;;;;1.20;0.70;;;;;;;;;;1886967;74;26304;-43
2022/02/22 12:50:42;;;;;;;0.72;0.70;;;;;;;;;;1869503;76;26700;-43
2022/02/22 12:53:09;;;;;;;1.17;0.70;;;;;;;;;;1888593;76;26272;-44
2022/02/22 12:55:46;;;;;;;0.70;0.70;;;;;;;;;;1894898;75;26303;-42
2022/02/22 12:58:14;;;;;;;0.50;0.50;;;;;;;;;;1889406;76;26277;-45
2022/02/22 13:00:41;;;;;;;1.00;0.70;;;;;;;;;;1887203;76;26639;-47
2022/02/22 13:03:13;;;;;;;0.75;0.75;;;;;;;;;;1885207;76;26350;-45
2022/02/22 13:05:42;;;;;;;0.60;0.60;;;;;;;;;;1887294;76;26273;-43
2022/02/22 13:08:10;;;;;;;1.10;0.80;;;;;;;;;;1889064;74;26306;-43
2022/02/22 13:10:48;;;;;;;0.50;0.50;;;;;;;;;;1882180;75;26338;-43
2022/02/22 13:13:16;;;;;;;0.60;0.60;;;;;;;;;;1887243;76;26273;-46
2022/02/22 13:15:44;;;;;;;0.70;0.68;;;;;;;;;;1887051;75;26256;-42
2022/02/22 13:18:12;;;;;;;0.72;0.70;;;;;;;;;;1883550;75;26374;-43
2022/02/22 13:20:40;;;;;;;0.90;0.90;;;;;;;;;;1880375;75;26256;-43
2022/02/22 13:23:11;;;;;;;0.50;0.50;;;;;;;;;;1867619;76;26300;-43
2022/02/22 13:25:37;;;;;;;0.70;0.70;;;;;;;;;;1898545;75;26827;-42
2022/02/22 13:28:05;;;;;;;0.70;0.70;;;;;;;;;;1885028;76;26429;-46
2022/02/22 13:30:39;;;;;;;0.70;0.70;;;;;;;;;;1879385;76;27342;-44
2022/02/22 13:33:05;;;;;;;0.70;0.70;;;;;;;;;;1875658;76;26355;-42
2022/02/22 13:35:32;;;;;;;0.50;0.50;;;;;;;;;;1874429;76;26249;-43
2022/02/22 13:38:00;;;;;;;0.53;0.53;;;;;;;;;;1875267;75;26307;-44
2022/02/22 13:40:30;;;;;;;0.78;0.78;;;;;;;;;;1876948;75;26335;-45
2022/02/22 13:43:07;;;;;;;0.60;0.60;;;;;;;;;;1879199;76;26288;-45
2022/02/22 13:45:35;;;;;;;0.80;0.80;;;;;;;;;;1859870;75;26330;-45
2022/02/22 13:48:04;;;;;;;0.70;0.70;;;;;;;;;;1879450;76;26266;-45
2022/02/22 13:50:32;;;;;;;0.50;0.50;;;;;;;;;;1879764;76;26318;-44
2022/02/22 13:53:01;;;;;;;0.70;0.70;;;;;;;;;;1874263;76;26764;-44
2022/02/22 13:55:30;;;;;;;0.57;0.57;;;;;;;;;;1861112;75;27062;-42
2022/02/22 13:58:01;;;;;;;0.80;0.80;;;;;;;;;;1877275;75;26250;-41
2022/02/22 14:00:28;;;;;;;0.70;0.70;;;;;;;;;;1887797;75;26728;-43
2022/02/22 14:03:03;;;;;;;0.80;0.80;;;;;;;;;;1880007;75;26566;-45
2022/02/22 14:05:31;;;;;;;0.62;0.62;;;;;;;;;;1869245;76;26386;-44
2022/02/22 14:07:58;;;;;;;0.72;0.70;;;;;;;;;;1879198;76;26854;-46
2022/02/22 14:10:26;;;;;;;0.70;0.70;;;;;;;;;;1860743;76;26709;-45
2022/02/22 14:12:53;;;;;;;0.70;0.70;;;;;;;;;;1877010;76;26801;-44
2022/02/22 14:15:21;;;;;;;0.70;0.70;;;;;;;;;;1870878;76;26263;-45
2022/02/22 14:17:48;;;;;;;0.95;0.60;;;;;;;;;;1870078;75;26331;-44
2022/02/22 14:20:15;;;;;;;0.70;0.70;;;;;;;;;;1879974;76;26721;-43
2022/02/22 14:22:43;;;;;;;0.70;0.70;;;;;;;;;;1871157;76;26273;-45
2022/02/22 14:25:11;;;;;;;0.70;0.70;;;;;;;;;;1876255;75;26824;-46
2022/02/22 14:27:38;;;;;;;0.70;0.70;;;;;;;;;;1876850;76;26339;-43
2022/02/22 14:30:07;;;;;;;1.47;0.60;;;;;;;;;;1888068;76;26268;-42
2022/02/22 14:32:35;;;;;;;0.60;0.60;;;;;;;;;;1870969;76;26271;-42
2022/02/22 14:35:04;;;;;;;0.75;0.75;;;;;;;;;;1882713;76;26704;-42
2022/02/22 14:37:31;;;;;;;0.50;0.50;;;;;;;;;;1885817;76;26492;-42
2022/02/22 14:39:58;;;;;;;0.50;0.50;;;;;;;;;;1884082;76;26272;-44
2022/02/22 14:42:26;;;;;;;0.70;0.70;;;;;;;;;;1888830;76;26267;-43
2022/02/22 14:44:53;;;;;;;0.55;0.55;;;;;;;;;;1879865;76;26349;-43
2022/02/22 14:47:22;;;;;;;0.50;0.50;;;;;;;;;;1875163;76;26347;-44